createdAt,value
2019-04-30T00:01:36.282Z,11.86
2019-04-30T00:04:13.005Z,11.86
2019-04-30T00:06:42.388Z,11.86
2019-04-30T00:09:15.231Z,11.86
2019-04-30T00:11:46.095Z,11.86
2019-04-30T00:14:16.943Z,11.87
2019-04-30T00:16:47.390Z,11.86
2019-04-30T00:19:19.680Z,11.85
2019-04-30T00:21:54.617Z,11.83
2019-04-30T00:24:19.073Z,11.80
2019-04-30T00:26:52.309Z,11.80
2019-04-30T00:29:26.777Z,11.86
2019-04-30T00:31:50.698Z,11.82
2019-04-30T00:34:20.120Z,11.88
2019-04-30T00:36:49.495Z,11.85
2019-04-30T00:39:18.906Z,11.84
2019-04-30T00:41:48.463Z,11.86
2019-04-30T00:44:20.063Z,11.85
2019-04-30T00:46:49.956Z,11.85
2019-04-30T00:49:23.074Z,11.85
2019-04-30T00:51:54.686Z,11.83
2019-04-30T00:54:22.355Z,11.82
2019-04-30T00:56:52.584Z,11.81
2019-04-30T00:59:21.934Z,11.80
2019-04-30T01:02:01.702Z,11.79
2019-04-30T01:04:32.728Z,11.76
2019-04-30T01:07:07.184Z,11.76
2019-04-30T01:09:35.443Z,11.76
2019-04-30T01:12:05.533Z,11.75
2019-04-30T01:14:34.876Z,11.75
2019-04-30T01:17:08.782Z,11.76
2019-04-30T01:19:35.540Z,11.76
2019-04-30T01:22:04.938Z,11.75
2019-04-30T01:25:23.308Z,11.78
2019-04-30T01:27:52.943Z,11.78
2019-04-30T01:30:22.922Z,11.73
2019-04-30T01:32:56.639Z,11.78
2019-04-30T01:35:23.885Z,11.74
2019-04-30T01:37:54.541Z,11.76
2019-04-30T01:40:23.889Z,11.75
2019-04-30T01:42:53.536Z,11.74
2019-04-30T01:45:27.156Z,11.74
2019-04-30T01:47:53.976Z,11.74
2019-04-30T01:50:23.446Z,11.72
2019-04-30T01:52:52.856Z,11.74
2019-04-30T01:55:36.976Z,11.74
2019-04-30T01:58:08.974Z,11.74
2019-04-30T02:00:42.677Z,11.71
2019-04-30T02:03:12.084Z,11.72
2019-04-30T02:05:41.450Z,11.73
2019-04-30T02:08:11.781Z,11.73
2019-04-30T02:10:41.173Z,11.72
2019-04-30T02:13:10.579Z,11.72
2019-04-30T02:15:39.944Z,11.70
2019-04-30T02:18:09.313Z,11.69
2019-04-30T02:20:38.695Z,11.68
2019-04-30T02:23:09.676Z,11.67
2019-04-30T02:25:39.880Z,11.66
2019-04-30T02:28:09.351Z,11.66
2019-04-30T02:30:40.415Z,11.65
2019-04-30T02:33:09.942Z,11.65
2019-04-30T02:35:46.871Z,11.61
2019-04-30T02:38:23.804Z,11.61
2019-04-30T02:40:54.079Z,11.68
2019-04-30T02:43:25.466Z,11.68
2019-04-30T02:45:56.577Z,11.67
2019-04-30T02:48:29.483Z,11.70
2019-04-30T02:51:01.166Z,11.67
2019-04-30T02:53:51.612Z,11.66
2019-04-30T02:56:26.356Z,11.66
2019-04-30T02:58:53.766Z,11.63
2019-04-30T03:01:23.182Z,11.66
2019-04-30T03:03:52.534Z,11.65
2019-04-30T03:06:23.742Z,11.64
2019-04-30T03:08:52.965Z,11.64
2019-04-30T03:11:22.374Z,11.62
2019-04-30T03:13:51.783Z,11.56
2019-04-30T03:16:22.782Z,11.56
2019-04-30T03:18:53.802Z,11.49
2019-04-30T03:21:40.797Z,11.48
2019-04-30T03:24:11.475Z,11.48
2019-04-30T03:26:40.800Z,11.45
2019-04-30T03:29:11.303Z,11.40
2019-04-30T03:31:43.938Z,11.40
2019-04-30T03:34:18.058Z,11.37
2019-04-30T03:36:43.211Z,11.34
2019-04-30T03:39:12.622Z,11.32
2019-04-30T03:41:41.951Z,11.31
2019-04-30T03:44:21.448Z,11.23
2019-04-30T03:46:42.443Z,11.28
2019-04-30T03:49:13.327Z,11.28
2019-04-30T03:51:42.971Z,11.28
2019-04-30T03:54:12.377Z,11.23
2019-04-30T03:56:42.611Z,11.23
2019-04-30T03:59:11.952Z,11.27
2019-04-30T04:01:42.987Z,11.28
2019-04-30T04:04:14.087Z,11.26
2019-04-30T04:06:45.097Z,11.28
2019-04-30T04:09:22.481Z,11.28
2019-04-30T04:11:51.825Z,11.29
2019-04-30T04:14:21.237Z,11.28
2019-04-30T04:16:51.070Z,11.26
2019-04-30T04:19:20.546Z,11.25
2019-04-30T04:21:50.986Z,11.23
2019-04-30T04:24:20.682Z,11.22
2019-04-30T04:26:51.115Z,11.22
2019-04-30T04:29:20.520Z,11.22
2019-04-30T04:31:50.425Z,11.22
2019-04-30T04:34:19.987Z,11.20
2019-04-30T04:36:50.515Z,11.21
2019-04-30T04:39:20.550Z,11.21
2019-04-30T04:41:50.574Z,11.19
2019-04-30T04:44:20.596Z,11.19
2019-04-30T04:46:50.510Z,11.19
2019-04-30T04:49:20.843Z,11.17
2019-04-30T04:51:51.334Z,11.18
2019-04-30T04:54:20.692Z,11.16
2019-04-30T04:56:53.365Z,11.18
2019-04-30T04:59:21.152Z,11.19
2019-04-30T05:01:50.647Z,11.20
2019-04-30T05:04:20.187Z,11.22
2019-04-30T05:06:50.008Z,11.23
2019-04-30T05:09:19.590Z,11.21
2019-04-30T05:11:49.010Z,11.17
2019-04-30T05:14:18.968Z,11.15
2019-04-30T05:16:48.905Z,11.17
2019-04-30T05:19:18.650Z,11.21
2019-04-30T05:21:49.511Z,11.23
2019-04-30T05:24:19.219Z,11.26
2019-04-30T05:26:48.897Z,11.25
2019-04-30T05:29:19.275Z,11.26
2019-04-30T05:31:48.737Z,11.26
2019-04-30T05:34:18.897Z,11.35
2019-04-30T05:36:49.005Z,11.34
2019-04-30T05:39:18.933Z,11.34
2019-04-30T05:41:49.172Z,11.41
2019-04-30T05:44:18.650Z,11.44
2019-04-30T05:46:49.468Z,11.47
2019-04-30T05:49:20.504Z,11.44
2019-04-30T05:51:55.550Z,11.46
2019-04-30T05:54:21.059Z,11.51
2019-04-30T05:56:50.471Z,11.51
2019-04-30T05:59:20.651Z,11.56
2019-04-30T06:01:50.801Z,11.60
2019-04-30T06:04:20.326Z,11.60
2019-04-30T06:06:49.705Z,11.65
2019-04-30T06:09:31.066Z,11.67
2019-04-30T06:12:02.615Z,11.72
2019-04-30T06:14:45.578Z,11.74
2019-04-30T06:17:09.932Z,11.71
2019-04-30T06:19:39.457Z,11.80
2019-04-30T06:22:10.985Z,11.80
2019-04-30T06:24:40.253Z,11.84
2019-04-30T06:27:10.823Z,11.90
2019-04-30T06:29:40.972Z,11.94
2019-04-30T06:32:11.313Z,12.02
2019-04-30T06:34:41.989Z,12.02
2019-04-30T06:37:12.635Z,12.09
2019-04-30T06:39:42.015Z,12.18
2019-04-30T06:42:12.988Z,12.26
2019-04-30T06:44:42.498Z,12.34
2019-04-30T06:47:12.689Z,12.38
2019-04-30T06:49:42.085Z,12.46
2019-04-30T06:52:20.317Z,12.54
2019-04-30T06:54:42.515Z,12.61
2019-04-30T06:57:12.221Z,12.69
2019-04-30T06:59:41.650Z,12.77
2019-04-30T07:02:11.053Z,12.77
2019-04-30T07:04:40.439Z,12.83
2019-04-30T07:07:09.876Z,12.91
2019-04-30T07:09:54.643Z,12.96
2019-04-30T07:12:34.550Z,13.01
2019-04-30T07:15:05.738Z,13.07
2019-04-30T07:17:35.208Z,13.12
2019-04-30T07:20:05.701Z,13.19
2019-04-30T07:22:40.200Z,13.27
2019-04-30T07:25:09.393Z,13.32
2019-04-30T07:27:40.141Z,13.37
2019-04-30T07:30:10.214Z,13.47
2019-04-30T07:32:39.599Z,13.55
2019-04-30T07:35:09.614Z,13.62
2019-04-30T07:37:39.391Z,13.71
2019-04-30T07:40:09.383Z,13.85
2019-04-30T07:42:44.702Z,14.02
2019-04-30T07:45:11.222Z,14.16
2019-04-30T07:47:40.606Z,14.27
2019-04-30T07:50:11.102Z,14.34
2019-04-30T07:52:57.647Z,14.42
2019-04-30T07:55:11.718Z,14.63
2019-04-30T07:57:41.115Z,14.84
2019-04-30T08:00:10.585Z,15.19
2019-04-30T08:02:43.761Z,15.55
2019-04-30T08:05:14.403Z,16.15
2019-04-30T08:07:43.747Z,16.78
2019-04-30T08:10:13.198Z,17.43
2019-04-30T08:12:43.907Z,17.96
2019-04-30T08:15:13.900Z,18.33
2019-04-30T08:17:43.302Z,18.45
2019-04-30T08:20:15.672Z,18.67
2019-04-30T08:22:43.845Z,18.71
2019-04-30T08:25:13.280Z,19.05
2019-04-30T08:27:42.670Z,19.42
2019-04-30T08:30:25.593Z,19.81
2019-04-30T08:32:44.773Z,20.08
2019-04-30T08:35:14.150Z,19.95
2019-04-30T08:37:43.562Z,19.78
2019-04-30T08:40:13.111Z,19.47
2019-04-30T08:42:42.521Z,19.55
2019-04-30T08:45:12.117Z,19.72
2019-04-30T08:47:41.661Z,19.68
2019-04-30T08:50:11.739Z,19.63
2019-04-30T08:52:41.261Z,19.54
2019-04-30T08:55:14.069Z,19.38
2019-04-30T08:57:41.684Z,19.31
2019-04-30T09:00:11.867Z,19.11
2019-04-30T09:02:42.523Z,19.06
2019-04-30T09:05:14.699Z,19.02
2019-04-30T09:07:44.173Z,19.25
2019-04-30T09:10:13.813Z,19.67
2019-04-30T09:12:43.221Z,19.88
2019-04-30T09:15:12.743Z,20.09
2019-04-30T09:17:42.124Z,20.57
2019-04-30T09:20:11.613Z,21.05
2019-04-30T09:22:40.987Z,21.38
2019-04-30T09:25:10.414Z,21.64
2019-04-30T09:27:39.975Z,21.74
2019-04-30T09:30:10.470Z,21.91
2019-04-30T09:32:39.868Z,22.17
2019-04-30T09:35:09.639Z,22.28
2019-04-30T09:37:41.722Z,22.51
2019-04-30T09:40:18.240Z,22.74
2019-04-30T09:42:42.432Z,22.99
2019-04-30T09:45:11.854Z,23.29
2019-04-30T09:47:42.084Z,23.62
2019-04-30T09:50:12.080Z,23.99
2019-04-30T09:52:41.848Z,24.54
2019-04-30T09:55:11.632Z,24.99
2019-04-30T09:57:41.069Z,25.83
2019-04-30T10:00:11.708Z,26.32
2019-04-30T10:02:41.113Z,25.74
2019-04-30T10:05:11.854Z,25.11
2019-04-30T10:07:41.798Z,25.70
2019-04-30T10:10:14.152Z,26.67
2019-04-30T10:12:43.566Z,27.67
2019-04-30T10:15:14.817Z,28.44
2019-04-30T10:17:45.822Z,28.56
2019-04-30T10:20:16.528Z,27.22
2019-04-30T10:22:45.866Z,26.03
2019-04-30T10:25:15.328Z,25.48
2019-04-30T10:27:44.728Z,25.05
2019-04-30T10:30:14.931Z,24.78
2019-04-30T10:32:44.290Z,24.61
2019-04-30T10:35:13.840Z,24.50
2019-04-30T10:37:43.292Z,24.16
2019-04-30T10:40:12.840Z,23.91
2019-04-30T10:42:42.685Z,23.64
2019-04-30T10:45:12.197Z,23.34
2019-04-30T10:47:41.565Z,22.92
2019-04-30T10:50:11.069Z,22.34
2019-04-30T10:52:40.438Z,22.00
2019-04-30T10:55:10.170Z,21.80
2019-04-30T10:57:39.800Z,21.52
2019-04-30T11:00:12.324Z,21.31
2019-04-30T11:02:41.789Z,21.15
2019-04-30T11:05:11.809Z,21.06
2019-04-30T11:07:41.223Z,21.00
2019-04-30T11:10:11.554Z,20.91
2019-04-30T11:12:40.923Z,20.81
2019-04-30T11:15:10.525Z,20.68
2019-04-30T11:17:40.169Z,20.58
2019-04-30T11:20:10.519Z,20.55
2019-04-30T11:22:40.310Z,20.51
2019-04-30T11:25:10.354Z,20.50
2019-04-30T11:27:41.048Z,20.40
2019-04-30T11:30:20.331Z,20.30
2019-04-30T11:32:42.856Z,20.15
2019-04-30T11:35:12.697Z,19.99
2019-04-30T11:37:42.045Z,19.95
2019-04-30T11:40:13.644Z,19.99
2019-04-30T11:42:43.065Z,20.06
2019-04-30T11:45:15.465Z,20.14
2019-04-30T11:47:53.316Z,19.97
2019-04-30T11:50:16.162Z,19.81
2019-04-30T11:52:45.493Z,19.67
2019-04-30T11:55:15.195Z,19.54
2019-04-30T11:57:44.849Z,19.47
2019-04-30T12:00:18.748Z,19.41
2019-04-30T12:02:52.642Z,19.48
2019-04-30T12:05:20.843Z,19.44
2019-04-30T12:07:51.892Z,19.61
2019-04-30T12:10:22.920Z,19.71
2019-04-30T12:12:52.357Z,19.79
2019-04-30T12:15:21.739Z,19.76
2019-04-30T12:17:51.200Z,19.63
2019-04-30T12:20:20.782Z,19.49
2019-04-30T12:22:50.160Z,19.39
2019-04-30T12:25:19.556Z,19.33
2019-04-30T12:27:49.016Z,19.19
2019-04-30T12:30:20.700Z,19.16
2019-04-30T12:32:50.281Z,19.18
2019-04-30T12:35:20.716Z,19.16
2019-04-30T12:37:52.403Z,19.17
2019-04-30T12:40:28.987Z,19.10
2019-04-30T12:42:52.364Z,18.92
2019-04-30T12:45:21.773Z,18.80
2019-04-30T12:47:55.479Z,18.77
2019-04-30T12:50:26.592Z,18.75
2019-04-30T12:53:15.799Z,18.73
2019-04-30T12:55:55.699Z,18.77
2019-04-30T12:58:25.078Z,18.84
2019-04-30T13:00:54.410Z,18.91
2019-04-30T13:03:23.821Z,18.93
2019-04-30T13:05:53.748Z,18.94
2019-04-30T13:08:24.100Z,18.88
2019-04-30T13:10:54.302Z,18.84
2019-04-30T13:13:24.543Z,18.77
2019-04-30T13:15:54.125Z,18.66
2019-04-30T13:18:23.506Z,18.55
2019-04-30T13:20:52.943Z,18.48
2019-04-30T13:23:22.333Z,18.39
2019-04-30T13:25:51.899Z,18.33
2019-04-30T13:28:22.896Z,18.29
2019-04-30T13:30:52.313Z,18.26
2019-04-30T13:33:26.284Z,18.23
2019-04-30T13:35:55.648Z,18.23
2019-04-30T13:38:26.657Z,18.27
2019-04-30T13:41:00.343Z,18.32
2019-04-30T13:43:39.933Z,18.31
2019-04-30T13:46:08.596Z,18.28
2019-04-30T13:48:38.057Z,18.28
2019-04-30T13:51:07.447Z,18.31
2019-04-30T13:53:36.862Z,18.34
2019-04-30T13:56:06.250Z,18.31
2019-04-30T13:58:35.642Z,18.14
2019-04-30T14:01:05.955Z,18.01
2019-04-30T14:03:52.940Z,17.97
2019-04-30T14:06:26.710Z,17.95
2019-04-30T14:09:03.597Z,17.90
2019-04-30T14:11:33.168Z,17.90
2019-04-30T14:14:02.642Z,17.93
2019-04-30T14:16:32.030Z,17.97
2019-04-30T14:19:01.472Z,18.01
2019-04-30T14:21:34.542Z,17.97
2019-04-30T14:24:02.043Z,17.90
2019-04-30T14:26:31.404Z,17.81
2019-04-30T14:29:00.789Z,17.77
2019-04-30T14:31:30.133Z,17.75
2019-04-30T14:33:59.559Z,17.73
2019-04-30T14:36:29.239Z,17.73
2019-04-30T14:39:12.995Z,17.72
2019-04-30T14:41:32.512Z,17.73
2019-04-30T14:44:03.625Z,17.76
2019-04-30T14:46:41.083Z,17.77
2019-04-30T14:49:24.940Z,17.76
2019-04-30T14:51:54.850Z,17.69
2019-04-30T14:54:25.896Z,17.61
2019-04-30T14:56:59.282Z,17.58
2019-04-30T14:59:46.055Z,17.55
2019-04-30T15:02:29.611Z,17.55
2019-04-30T15:04:59.158Z,17.55
2019-04-30T15:07:29.568Z,17.51
2019-04-30T15:09:59.144Z,17.50
2019-04-30T15:12:28.494Z,17.49
2019-04-30T15:14:59.217Z,17.50
2019-04-30T15:17:28.726Z,17.51
2019-04-30T15:19:58.762Z,17.52
2019-04-30T15:22:29.074Z,17.54
2019-04-30T15:24:59.174Z,17.54
2019-04-30T15:27:29.023Z,17.55
2019-04-30T15:29:58.414Z,17.53
2019-04-30T15:32:28.628Z,17.50
2019-04-30T15:34:58.953Z,17.47
2019-04-30T15:37:28.718Z,17.48
2019-04-30T15:39:59.134Z,17.49
2019-04-30T15:42:28.610Z,17.44
2019-04-30T15:44:59.442Z,17.40
2019-04-30T15:47:28.936Z,17.39
2019-04-30T15:49:59.600Z,17.35
2019-04-30T15:52:30.101Z,17.29
2019-04-30T15:54:59.513Z,17.25
2019-04-30T15:57:29.539Z,17.22
2019-04-30T15:59:58.910Z,17.17
2019-04-30T16:02:29.917Z,17.14
2019-04-30T16:05:15.790Z,17.11
2019-04-30T16:07:46.809Z,17.08
2019-04-30T16:10:33.901Z,17.08
2019-04-30T16:13:10.925Z,17.07
2019-04-30T16:15:40.316Z,17.04
2019-04-30T16:18:09.800Z,17.02
2019-04-30T16:20:39.348Z,16.95
2019-04-30T16:23:09.202Z,16.90
2019-04-30T16:25:39.061Z,16.86
2019-04-30T16:28:10.109Z,16.81
2019-04-30T16:30:39.569Z,16.78
2019-04-30T16:33:09.495Z,16.73
2019-04-30T16:35:39.016Z,16.65
2019-04-30T16:38:09.298Z,16.61
2019-04-30T16:40:38.713Z,16.57
2019-04-30T16:43:08.036Z,16.53
2019-04-30T16:45:38.930Z,16.48
2019-04-30T16:48:10.087Z,16.45
2019-04-30T16:50:39.418Z,16.42
2019-04-30T16:53:08.860Z,16.38
2019-04-30T16:55:38.237Z,16.32
2019-04-30T16:58:08.932Z,16.28
2019-04-30T17:00:39.262Z,16.22
2019-04-30T17:03:28.726Z,16.17
2019-04-30T17:06:11.399Z,16.10
2019-04-30T17:08:49.406Z,16.01
2019-04-30T17:11:36.324Z,15.95
2019-04-30T17:14:07.428Z,15.85
2019-04-30T17:16:36.831Z,15.77
2019-04-30T17:19:06.596Z,15.69
2019-04-30T17:21:35.957Z,15.63
2019-04-30T17:24:05.317Z,15.58
2019-04-30T17:26:34.706Z,15.52
2019-04-30T17:29:04.145Z,15.46
2019-04-30T17:31:33.512Z,15.39
2019-04-30T17:34:02.912Z,15.33
2019-04-30T17:36:32.306Z,15.25
2019-04-30T17:39:01.709Z,15.17
2019-04-30T17:41:32.830Z,15.10
2019-04-30T17:44:02.211Z,15.02
2019-04-30T17:46:31.630Z,14.97
2019-04-30T17:49:01.016Z,14.90
2019-04-30T17:51:30.418Z,14.84
2019-04-30T17:54:12.868Z,14.79
2019-04-30T17:56:43.684Z,14.72
2019-04-30T17:59:14.275Z,14.67
2019-04-30T18:01:51.385Z,14.62
2019-04-30T18:04:22.221Z,14.55
2019-04-30T18:06:51.768Z,14.48
2019-04-30T18:09:21.627Z,14.41
2019-04-30T18:11:50.985Z,14.35
2019-04-30T18:14:20.477Z,14.28
2019-04-30T18:16:49.806Z,14.23
2019-04-30T18:19:35.882Z,14.17
2019-04-30T18:22:19.464Z,14.10
2019-04-30T18:25:05.328Z,14.03
2019-04-30T18:27:45.284Z,13.96
2019-04-30T18:30:10.357Z,13.90
2019-04-30T18:32:39.729Z,13.85
2019-04-30T18:35:09.210Z,13.80
2019-04-30T18:37:38.785Z,13.75
2019-04-30T18:40:09.630Z,13.70
2019-04-30T18:42:39.597Z,13.65
2019-04-30T18:45:11.238Z,13.59
2019-04-30T18:47:40.351Z,13.54
2019-04-30T18:50:09.853Z,13.48
2019-04-30T18:52:39.820Z,13.42
2019-04-30T18:55:09.392Z,13.36
2019-04-30T18:57:39.821Z,13.30
2019-04-30T19:00:10.096Z,13.23
2019-04-30T19:02:40.504Z,13.17
2019-04-30T19:05:12.685Z,13.10
2019-04-30T19:07:59.125Z,13.04
2019-04-30T19:10:35.840Z,12.98
2019-04-30T19:13:24.727Z,12.91
2019-04-30T19:16:21.432Z,12.84
2019-04-30T19:18:43.593Z,12.77
2019-04-30T19:21:13.120Z,12.71
2019-04-30T19:23:42.488Z,12.66
2019-04-30T19:26:11.960Z,12.59
2019-04-30T19:28:41.368Z,12.55
2019-04-30T19:31:11.733Z,12.50
2019-04-30T19:33:41.222Z,12.45
2019-04-30T19:36:10.616Z,12.38
2019-04-30T19:38:39.981Z,12.32
2019-04-30T19:41:10.899Z,12.28
2019-04-30T19:43:40.255Z,12.21
2019-04-30T19:46:09.607Z,12.17
2019-04-30T19:48:39.025Z,12.13
2019-04-30T19:51:08.864Z,12.08
2019-04-30T19:53:39.514Z,12.05
2019-04-30T19:56:09.023Z,11.96
2019-04-30T19:58:54.399Z,11.95
2019-04-30T20:01:10.445Z,11.89
2019-04-30T20:03:40.711Z,11.84
2019-04-30T20:06:10.195Z,11.80
2019-04-30T20:08:39.585Z,11.75
2019-04-30T20:11:08.941Z,11.71
2019-04-30T20:13:40.317Z,11.67
2019-04-30T20:16:09.661Z,11.64
2019-04-30T20:18:39.162Z,11.57
2019-04-30T20:21:10.193Z,11.57
2019-04-30T20:23:39.557Z,11.52
2019-04-30T20:26:08.933Z,11.48
2019-04-30T20:28:42.084Z,11.45
2019-04-30T20:31:11.604Z,11.43
2019-04-30T20:33:40.856Z,11.38
2019-04-30T20:36:10.244Z,11.35
2019-04-30T20:38:41.282Z,11.32
2019-04-30T20:41:11.845Z,11.28
2019-04-30T20:43:41.205Z,11.24
2019-04-30T20:46:10.544Z,11.19
2019-04-30T20:48:41.192Z,11.16
2019-04-30T20:51:10.546Z,11.12
2019-04-30T20:53:41.061Z,11.07
2019-04-30T20:56:10.473Z,11.02
2019-04-30T20:58:54.602Z,11.00
2019-04-30T21:01:10.982Z,10.91
2019-04-30T21:03:40.319Z,10.93
2019-04-30T21:06:10.153Z,10.88
2019-04-30T21:08:39.589Z,10.85
2019-04-30T21:11:09.428Z,10.80
2019-04-30T21:13:39.262Z,10.76
2019-04-30T21:16:09.604Z,10.74
2019-04-30T21:18:39.238Z,10.71
2019-04-30T21:21:08.529Z,10.68
2019-04-30T21:23:39.236Z,10.65
2019-04-30T21:26:08.677Z,10.60
2019-04-30T21:28:39.301Z,10.56
2019-04-30T21:31:26.541Z,10.53
2019-04-30T21:33:58.735Z,10.48
2019-04-30T21:36:28.602Z,10.44
2019-04-30T21:38:59.098Z,10.41
2019-04-30T21:41:29.645Z,10.36
2019-04-30T21:44:00.148Z,10.33
2019-04-30T21:46:29.520Z,10.28
2019-04-30T21:48:58.925Z,10.25
2019-04-30T21:51:28.271Z,10.20
2019-04-30T21:53:57.679Z,10.19
2019-04-30T21:56:27.064Z,10.15
2019-04-30T21:58:56.486Z,10.13
2019-04-30T22:01:26.003Z,10.09
2019-04-30T22:03:55.624Z,10.06
2019-04-30T22:06:24.986Z,10.03
2019-04-30T22:08:54.369Z,9.99
2019-04-30T22:11:23.742Z,9.95
2019-04-30T22:13:53.121Z,9.93
2019-04-30T22:16:22.593Z,9.90
2019-04-30T22:18:51.944Z,9.87
2019-04-30T22:21:21.331Z,9.82
2019-04-30T22:23:50.715Z,9.80
2019-04-30T22:26:20.076Z,9.75
2019-04-30T22:28:49.613Z,9.71
2019-04-30T22:31:19.790Z,9.69
2019-04-30T22:33:49.237Z,9.65
2019-04-30T22:36:20.188Z,9.62
2019-04-30T22:38:52.144Z,9.59
2019-04-30T22:41:29.572Z,9.57
2019-04-30T22:43:59.104Z,9.53
2019-04-30T22:46:29.339Z,9.50
2019-04-30T22:48:58.742Z,9.47
2019-04-30T22:51:28.110Z,9.44
2019-04-30T22:53:57.460Z,9.39
2019-04-30T22:56:26.850Z,9.36
2019-04-30T22:58:56.213Z,9.31
2019-04-30T23:01:29.867Z,9.29
2019-04-30T23:04:03.565Z,9.25
2019-04-30T23:06:32.938Z,9.21
2019-04-30T23:09:02.341Z,9.18
2019-04-30T23:11:33.311Z,9.16
2019-04-30T23:14:02.692Z,9.12
2019-04-30T23:16:32.027Z,9.09
2019-04-30T23:19:01.432Z,9.07
2019-04-30T23:21:30.780Z,9.03
2019-04-30T23:24:00.182Z,9.01
2019-04-30T23:26:29.531Z,8.96
2019-04-30T23:28:58.892Z,8.93
2019-04-30T23:31:28.244Z,8.91
2019-04-30T23:33:57.616Z,8.87
2019-04-30T23:36:26.943Z,8.84
2019-04-30T23:38:56.311Z,8.81
2019-04-30T23:41:25.703Z,8.78
2019-04-30T23:43:55.148Z,8.75
2019-04-30T23:46:24.534Z,8.71
2019-04-30T23:48:53.878Z,8.69
2019-04-30T23:51:23.286Z,8.65
2019-04-30T23:53:52.676Z,8.63
2019-04-30T23:56:22.019Z,8.60
2019-04-30T23:58:51.410Z,8.56
